MSC Flavia — 3FBD7 — position and weather

sailwx.info

Track history (hours):
 
Tides and Currents Weather Stations Pressure Air Temp Water Temp Dewpoint Dewpoint Depression Visibility Wind Speed Wind Dir Waves Ship Positions

MSC Flavia

Last reported at 2015-Apr-20 23:28 UTC. Time now 2015-Apr-21 09:49 UTC.
Position N 22°24' E 114°35'.

Length 366 m; draft 8 m.

Type: Ship (hazmat cat A). MMSI: 373004000.

Date/timePositionNaut miles runAvg speedWind from/ knotsBaromVisibWave heightAir tempDewpointWater temp
2015-Apr-20 23:28N 22°24' E 114°35'0 0.0
2015-Apr-20 22:10N 22°24' E 114°35'0 0.1
2015-Apr-20 20:31N 22°24' E 114°36'0 0.1
2015-Apr-20 19:10N 22°24' E 114°36'0 0.0
2015-Apr-20 18:22N 22°24' E 114°36'0 0.0
2015-Apr-20 17:19N 22°24' E 114°36'0 0.0
2015-Apr-20 16:13N 22°24' E 114°36'0 0.0
2015-Apr-20 15:04N 22°24' E 114°36'0 0.0
2015-Apr-20 14:22N 22°24' E 114°36'0 0.0
2015-Apr-20 13:28N 22°24' E 114°36'0 0.0
2015-Apr-20 03:25N 22°24' E 114°36'0 0.0
2015-Apr-20 02:31N 22°24' E 114°36'0 0.0
2015-Apr-20 01:28N 22°24' E 114°36'0 0.0
2015-Apr-20 00:28N 22°24' E 114°36'0 0.0
2015-Apr-19 23:13N 22°24' E 114°36'0 0.1
2015-Apr-19 22:22N 22°24' E 114°36'0 0.0
2015-Apr-19 21:31N 22°24' E 114°36'0 0.0
2015-Apr-19 19:31N 22°24' E 114°36'0 0.0
2015-Apr-19 18:13N 22°24' E 114°36'0 0.1
2015-Apr-19 17:31N 22°24' E 114°36'0 0.0
2015-Apr-19 15:22N 22°24' E 114°36'0 0.0
2015-Apr-19 10:07N 22°24' E 114°35'0 0.0
2015-Apr-18 23:27N 22°24' E 114°36'0 0.0
2015-Apr-18 21:33N 22°24' E 114°36'0 0.0
2015-Apr-18 19:27N 22°24' E 114°36'0 0.0
2015-Apr-18 18:09N 22°24' E 114°36'0 0.0
2015-Apr-18 15:03N 22°24' E 114°35'0 0.0
2015-Apr-18 14:27N 22°24' E 114°35'0 0.0
2015-Apr-18 07:21N 22°24' E 114°35'0 0.0
2015-Apr-17 22:15N 22°24' E 114°35'110 4.5
2015-Apr-16 21:33N 22°14' E 116°34'1211.7
2015-Apr-16 20:33N 22°13' E 116°47'1211.8
2015-Apr-16 19:34N 22°14' E 116°59'2411.8
2015-Apr-16 17:32N 22°14' E 117°25'1111.3
2015-Apr-16 16:33N 22°16' E 117°37'1110.9
2015-Apr-16 15:33N 22°22' E 117°47'1211.0
2015-Apr-16 14:26N 22°25' E 117°60'1011.5
2015-Apr-16 13:33N 22°26' E 118°11'1111.2
2015-Apr-16 12:33N 22°28' E 118°23'1111.4
2015-Apr-16 11:33N 22°30' E 118°35'1711.6
2015-Apr-16 10:07N 22°34' E 118°52'1011.7
2015-Apr-16 09:14N 22°41' E 119°00'1011.5
2015-Apr-16 08:23N 22°47' E 119°09'45610.1
2015-Apr-14 11:19N 29°39' E 122°46'912.3
2015-Apr-14 10:33N 29°40' E 122°35'1211.7
2015-Apr-14 09:33N 29°42' E 122°22'1111.3
2015-Apr-14 08:33N 29°50' E 122°12'4 0.9
2015-Apr-14 04:07N 29°49' E 122°08'0 0.0
2015-Apr-14 03:07N 29°49' E 122°08'0 0.1
2015-Apr-14 01:25N 29°49' E 122°08'0 0.0
2015-Apr-14 00:07N 29°49' E 122°08'0 0.1
2015-Apr-13 23:31N 29°50' E 122°08'0 0.0
2015-Apr-13 21:31N 29°50' E 122°08'0 0.0
2015-Apr-13 20:25N 29°50' E 122°08'0 0.0
2015-Apr-13 19:13N 29°50' E 122°08'0 0.0
2015-Apr-13 18:07N 29°50' E 122°08'0 0.1
2015-Apr-13 16:25N 29°49' E 122°08'0 0.0
2015-Apr-13 15:19N 29°49' E 122°08'0 0.0
2015-Apr-13 12:13N 29°49' E 122°08'0 0.0
2015-Apr-13 10:31N 29°49' E 122°08'2 1.9
2015-Apr-13 09:18N 29°47' E 122°07'0 0.0
2015-Apr-13 08:12N 29°47' E 122°07'0 0.0
2015-Apr-13 07:30N 29°47' E 122°07'0 0.0
2015-Apr-13 06:30N 29°47' E 122°07'0 0.0
2015-Apr-13 01:12N 29°47' E 122°07'0 0.0
2015-Apr-13 00:30N 29°47' E 122°07'0 0.0
2015-Apr-12 23:30N 29°47' E 122°07'0 0.0
2015-Apr-12 22:30N 29°47' E 122°07'0 0.0
2015-Apr-12 20:30N 29°47' E 122°07'0 0.0
2015-Apr-12 19:30N 29°47' E 122°07'0 0.0
2015-Apr-12 16:29N 29°47' E 122°07'0 0.0
2015-Apr-12 14:24N 29°47' E 122°07'0 0.0
2015-Apr-12 13:12N 29°47' E 122°07'0 0.0
2015-Apr-12 12:05N 29°47' E 122°07'0 0.0
2015-Apr-12 11:24N 29°47' E 122°07'0 0.0
2015-Apr-12 07:18N 29°47' E 122°07'0 0.0
2015-Apr-12 06:30N 29°47' E 122°07'0 0.0
2015-Apr-12 05:23N 29°47' E 122°07'0 0.0
2015-Apr-12 04:11N 29°47' E 122°07'0 0.0
2015-Apr-12 02:17N 29°47' E 122°07'0 0.0
2015-Apr-12 01:29N 29°47' E 122°07'0 0.0
2015-Apr-12 00:17N 29°47' E 122°07'0 0.0
2015-Apr-11 21:29N 29°47' E 122°07'0 0.0
2015-Apr-11 20:29N 29°47' E 122°07'0 0.0
2015-Apr-11 19:29N 29°47' E 122°07'0 0.0
2015-Apr-11 18:29N 29°47' E 122°07'0 0.0
2015-Apr-11 17:05N 29°47' E 122°07'0 0.0
2015-Apr-11 15:11N 29°47' E 122°07'0 0.0
2015-Apr-11 14:30N 29°47' E 122°07'0 0.0
2015-Apr-11 13:30N 29°47' E 122°07'0 0.0
2015-Apr-11 10:06N 29°47' E 122°07'0 0.0
2015-Apr-11 07:11N 29°47' E 122°07'0 0.0
2015-Apr-11 06:11N 29°47' E 122°07'0 0.0
2015-Apr-11 05:17N 29°47' E 122°07'0 0.0
2015-Apr-11 01:29N 29°47' E 122°07'0 0.0
2015-Apr-10 23:29N 29°47' E 122°07'  
Track history (hours):
 
Tides and Currents Weather Stations Pressure Air Temp Water Temp Dewpoint Dewpoint Depression Visibility Wind Speed Wind Dir Waves Ship Positions

MSC Flavia

Last reported at 2015-Apr-20 23:28 UTC. Time now 2015-Apr-21 09:49 UTC.
Position N 22°24' E 114°35'.

Length 366 m; draft 8 m.

Type: Ship (hazmat cat A). MMSI: 373004000.

Date/timePositionNaut miles runAvg speedWind from/ knotsBaromVisibWave heightAir tempDewpointWater temp
2015-Apr-20 23:28N 22°24' E 114°35'0 0.0
2015-Apr-20 22:10N 22°24' E 114°35'0 0.1
2015-Apr-20 20:31N 22°24' E 114°36'0 0.1
2015-Apr-20 19:10N 22°24' E 114°36'0 0.0
2015-Apr-20 18:22N 22°24' E 114°36'0 0.0
2015-Apr-20 17:19N 22°24' E 114°36'0 0.0
2015-Apr-20 16:13N 22°24' E 114°36'0 0.0
2015-Apr-20 15:04N 22°24' E 114°36'0 0.0
2015-Apr-20 14:22N 22°24' E 114°36'0 0.0
2015-Apr-20 13:28N 22°24' E 114°36'0 0.0
2015-Apr-20 03:25N 22°24' E 114°36'0 0.0
2015-Apr-20 02:31N 22°24' E 114°36'0 0.0
2015-Apr-20 01:28N 22°24' E 114°36'0 0.0
2015-Apr-20 00:28N 22°24' E 114°36'0 0.0
2015-Apr-19 23:13N 22°24' E 114°36'0 0.1
2015-Apr-19 22:22N 22°24' E 114°36'0 0.0
2015-Apr-19 21:31N 22°24' E 114°36'0 0.0
2015-Apr-19 19:31N 22°24' E 114°36'0 0.0
2015-Apr-19 18:13N 22°24' E 114°36'0 0.1
2015-Apr-19 17:31N 22°24' E 114°36'0 0.0
2015-Apr-19 15:22N 22°24' E 114°36'0 0.0
2015-Apr-19 10:07N 22°24' E 114°35'0 0.0
2015-Apr-18 23:27N 22°24' E 114°36'0 0.0
2015-Apr-18 21:33N 22°24' E 114°36'0 0.0
2015-Apr-18 19:27N 22°24' E 114°36'0 0.0
2015-Apr-18 18:09N 22°24' E 114°36'0 0.0
2015-Apr-18 15:03N 22°24' E 114°35'0 0.0
2015-Apr-18 14:27N 22°24' E 114°35'0 0.0
2015-Apr-18 07:21N 22°24' E 114°35'0 0.0
2015-Apr-17 22:15N 22°24' E 114°35'110 4.5
2015-Apr-16 21:33N 22°14' E 116°34'1211.7
2015-Apr-16 20:33N 22°13' E 116°47'1211.8
2015-Apr-16 19:34N 22°14' E 116°59'2411.8
2015-Apr-16 17:32N 22°14' E 117°25'1111.3
2015-Apr-16 16:33N 22°16' E 117°37'1110.9
2015-Apr-16 15:33N 22°22' E 117°47'1211.0
2015-Apr-16 14:26N 22°25' E 117°60'1011.5
2015-Apr-16 13:33N 22°26' E 118°11'1111.2
2015-Apr-16 12:33N 22°28' E 118°23'1111.4
2015-Apr-16 11:33N 22°30' E 118°35'1711.6
2015-Apr-16 10:07N 22°34' E 118°52'1011.7
2015-Apr-16 09:14N 22°41' E 119°00'1011.5
2015-Apr-16 08:23N 22°47' E 119°09'45610.1
2015-Apr-14 11:19N 29°39' E 122°46'912.3
2015-Apr-14 10:33N 29°40' E 122°35'1211.7
2015-Apr-14 09:33N 29°42' E 122°22'1111.3
2015-Apr-14 08:33N 29°50' E 122°12'4 0.9
2015-Apr-14 04:07N 29°49' E 122°08'0 0.0
2015-Apr-14 03:07N 29°49' E 122°08'0 0.1
2015-Apr-14 01:25N 29°49' E 122°08'0 0.0
2015-Apr-14 00:07N 29°49' E 122°08'0 0.1
2015-Apr-13 23:31N 29°50' E 122°08'0 0.0
2015-Apr-13 21:31N 29°50' E 122°08'0 0.0
2015-Apr-13 20:25N 29°50' E 122°08'0 0.0
2015-Apr-13 19:13N 29°50' E 122°08'0 0.0
2015-Apr-13 18:07N 29°50' E 122°08'0 0.1
2015-Apr-13 16:25N 29°49' E 122°08'0 0.0
2015-Apr-13 15:19N 29°49' E 122°08'0 0.0
2015-Apr-13 12:13N 29°49' E 122°08'0 0.0
2015-Apr-13 10:31N 29°49' E 122°08'2 1.9
2015-Apr-13 09:18N 29°47' E 122°07'0 0.0
2015-Apr-13 08:12N 29°47' E 122°07'0 0.0
2015-Apr-13 07:30N 29°47' E 122°07'0 0.0
2015-Apr-13 06:30N 29°47' E 122°07'0 0.0
2015-Apr-13 01:12N 29°47' E 122°07'0 0.0
2015-Apr-13 00:30N 29°47' E 122°07'0 0.0
2015-Apr-12 23:30N 29°47' E 122°07'0 0.0
2015-Apr-12 22:30N 29°47' E 122°07'0 0.0
2015-Apr-12 20:30N 29°47' E 122°07'0 0.0
2015-Apr-12 19:30N 29°47' E 122°07'0 0.0
2015-Apr-12 16:29N 29°47' E 122°07'0 0.0
2015-Apr-12 14:24N 29°47' E 122°07'0 0.0
2015-Apr-12 13:12N 29°47' E 122°07'0 0.0
2015-Apr-12 12:05N 29°47' E 122°07'0 0.0
2015-Apr-12 11:24N 29°47' E 122°07'0 0.0
2015-Apr-12 07:18N 29°47' E 122°07'0 0.0
2015-Apr-12 06:30N 29°47' E 122°07'0 0.0
2015-Apr-12 05:23N 29°47' E 122°07'0 0.0
2015-Apr-12 04:11N 29°47' E 122°07'0 0.0
2015-Apr-12 02:17N 29°47' E 122°07'0 0.0
2015-Apr-12 01:29N 29°47' E 122°07'0 0.0
2015-Apr-12 00:17N 29°47' E 122°07'0 0.0
2015-Apr-11 21:29N 29°47' E 122°07'0 0.0
2015-Apr-11 20:29N 29°47' E 122°07'0 0.0
2015-Apr-11 19:29N 29°47' E 122°07'0 0.0
2015-Apr-11 18:29N 29°47' E 122°07'0 0.0
2015-Apr-11 17:05N 29°47' E 122°07'0 0.0
2015-Apr-11 15:11N 29°47' E 122°07'0 0.0
2015-Apr-11 14:30N 29°47' E 122°07'0 0.0
2015-Apr-11 13:30N 29°47' E 122°07'0 0.0
2015-Apr-11 10:06N 29°47' E 122°07'0 0.0
2015-Apr-11 07:11N 29°47' E 122°07'0 0.0
2015-Apr-11 06:11N 29°47' E 122°07'0 0.0
2015-Apr-11 05:17N 29°47' E 122°07'0 0.0
2015-Apr-11 01:29N 29°47' E 122°07'0 0.0
2015-Apr-10 23:29N 29°47' E 122°07'  

Dump ship's entire track history